createdAt,value
2023-04-05T00:00:01.112Z,3.85
2023-04-05T00:04:58.516Z,3.75
2023-04-05T00:07:26.436Z,4.15
2023-04-05T00:09:53.713Z,4.40
2023-04-05T00:12:20.695Z,5.00
2023-04-05T00:14:48.494Z,4.47
2023-04-05T00:17:15.444Z,5.07
2023-04-05T00:19:43.185Z,3.92
2023-04-05T00:22:10.633Z,3.83
2023-04-05T00:24:39.039Z,5.55
2023-04-05T00:27:06.135Z,7.40
2023-04-05T00:29:33.058Z,7.88
2023-04-05T00:32:00.330Z,7.32
2023-04-05T00:34:27.651Z,9.38
2023-04-05T00:36:54.434Z,8.77
2023-04-05T00:39:21.711Z,8.43
2023-04-05T00:41:48.893Z,7.43
2023-04-05T00:44:15.777Z,6.95
2023-04-05T00:46:42.604Z,6.35
2023-04-05T00:49:09.582Z,6.53
2023-04-05T00:51:38.072Z,7.40
2023-04-05T00:54:05.402Z,5.93
2023-04-05T00:56:32.880Z,6.32
2023-04-05T00:58:59.826Z,5.97
2023-04-05T01:01:27.910Z,6.13
2023-04-05T01:04:03.112Z,7.20
2023-04-05T01:06:44.679Z,5.63
2023-04-05T01:09:33.022Z,7.20
2023-04-05T01:12:04.748Z,6.90
2023-04-05T01:14:31.629Z,7.43
2023-04-05T01:16:58.521Z,5.97
2023-04-05T01:19:30.175Z,6.45
2023-04-05T01:22:14.365Z,6.78
2023-04-05T01:24:46.788Z,5.00
2023-04-05T01:27:48.696Z,6.35
2023-04-05T01:30:34.865Z,5.65
2023-04-05T01:33:35.192Z,5.35
2023-04-05T01:36:11.840Z,5.13
2023-04-05T01:38:46.329Z,5.75
2023-04-05T01:41:13.657Z,5.97
2023-04-05T01:43:40.455Z,5.70
2023-04-05T01:46:07.537Z,5.93
2023-04-05T01:48:34.280Z,7.05
2023-04-05T01:51:01.208Z,5.90
2023-04-05T01:53:28.006Z,6.40
2023-04-05T01:55:54.851Z,5.05
2023-04-05T01:58:21.716Z,4.50
2023-04-05T02:00:48.976Z,5.10
2023-04-05T02:03:15.929Z,4.82
2023-04-05T02:05:42.823Z,5.28
2023-04-05T02:08:09.995Z,4.22
2023-04-05T02:10:37.157Z,4.38
2023-04-05T02:13:04.064Z,4.32
2023-04-05T02:15:30.864Z,3.60
2023-04-05T02:17:57.692Z,4.50
2023-04-05T02:20:26.026Z,4.22
2023-04-05T02:22:53.745Z,5.30
2023-04-05T02:25:21.078Z,4.05
2023-04-05T02:27:48.765Z,4.60
2023-04-05T02:30:15.818Z,4.60
2023-04-05T02:32:42.951Z,5.00
2023-04-05T02:35:10.742Z,4.22
2023-04-05T02:37:38.260Z,4.22
2023-04-05T02:40:11.857Z,4.43
2023-04-05T02:42:39.028Z,3.92
2023-04-05T02:45:08.442Z,3.58
2023-04-05T02:47:35.325Z,3.40
2023-04-05T02:50:02.732Z,3.90
2023-04-05T02:52:29.640Z,3.95
2023-04-05T02:54:56.411Z,3.15
2023-04-05T02:57:23.656Z,3.72
2023-04-05T02:59:52.085Z,3.40
2023-04-05T03:02:19.011Z,3.47
2023-04-05T03:04:46.619Z,3.25
2023-04-05T03:07:18.548Z,2.72
2023-04-05T03:09:46.507Z,3.20
2023-04-05T03:12:13.832Z,3.42
2023-04-05T03:14:41.434Z,3.40
2023-04-05T03:17:08.406Z,3.20
2023-04-05T03:19:35.656Z,2.72
2023-04-05T03:22:02.467Z,3.45
2023-04-05T03:24:29.304Z,3.08
2023-04-05T03:26:56.163Z,2.95
2023-04-05T03:29:23.380Z,4.53
2023-04-05T03:31:51.168Z,3.72
2023-04-05T03:34:18.487Z,3.63
2023-04-05T03:36:45.810Z,5.80
2023-04-05T03:39:13.893Z,4.10
2023-04-05T03:41:41.675Z,3.95
2023-04-05T03:44:09.369Z,5.30
2023-04-05T03:46:38.177Z,4.25
2023-04-05T03:49:06.239Z,8.00
2023-04-05T03:51:33.482Z,4.45
2023-04-05T03:54:00.463Z,3.92
2023-04-05T03:56:27.837Z,8.90
2023-04-05T03:58:54.772Z,4.70
2023-04-05T04:01:22.088Z,9.90
2023-04-05T04:03:48.855Z,5.25
2023-04-05T04:06:17.885Z,6.00
2023-04-05T04:08:46.174Z,4.68
2023-04-05T04:11:13.025Z,5.28
2023-04-05T04:13:39.843Z,3.28
2023-04-05T04:16:07.178Z,4.00
2023-04-05T04:18:34.515Z,4.22
2023-04-05T04:21:07.242Z,3.80
2023-04-05T04:23:38.637Z,3.42
2023-04-05T04:26:06.178Z,4.00
2023-04-05T04:28:34.773Z,2.95
2023-04-05T04:31:05.225Z,3.45
2023-04-05T04:33:34.577Z,3.92
2023-04-05T04:36:07.160Z,4.10
2023-04-05T04:38:34.926Z,4.10
2023-04-05T04:41:07.304Z,4.38
2023-04-05T04:43:37.402Z,2.90
2023-04-05T04:46:10.986Z,2.75
2023-04-05T04:48:42.086Z,5.50
2023-04-05T04:51:09.336Z,3.72
2023-04-05T04:53:36.340Z,4.18
2023-04-05T04:56:07.519Z,4.20
2023-04-05T04:58:34.358Z,4.35
2023-04-05T05:01:01.372Z,3.83
2023-04-05T05:03:28.748Z,3.78
2023-04-05T05:05:57.082Z,3.80
2023-04-05T05:08:24.300Z,3.33
2023-04-05T05:10:54.402Z,3.42
2023-04-05T05:13:21.360Z,3.60
2023-04-05T05:15:48.616Z,3.80
2023-04-05T05:18:16.242Z,5.82
2023-04-05T05:20:43.458Z,8.50
2023-04-05T05:23:10.895Z,4.75
2023-04-05T05:25:38.653Z,3.90
2023-04-05T05:28:06.519Z,2.97
2023-04-05T05:30:33.843Z,4.25
2023-04-05T05:33:01.365Z,3.85
2023-04-05T05:35:28.438Z,4.53
2023-04-05T05:37:55.401Z,3.67
2023-04-05T05:40:22.165Z,4.75
2023-04-05T05:42:49.750Z,3.80
2023-04-05T05:45:16.549Z,3.72
2023-04-05T05:47:43.454Z,4.45
2023-04-05T05:50:10.746Z,5.18
2023-04-05T05:52:37.515Z,5.63
2023-04-05T05:55:04.568Z,4.50
2023-04-05T05:57:31.941Z,4.22
2023-04-05T05:59:58.786Z,4.50
2023-04-05T06:02:26.278Z,3.88
2023-04-05T06:04:55.115Z,5.07
2023-04-05T06:07:22.818Z,4.13
2023-04-05T06:09:49.872Z,4.20
2023-04-05T06:12:16.718Z,3.70
2023-04-05T06:14:43.579Z,3.42
2023-04-05T06:17:10.413Z,4.03
2023-04-05T06:19:37.807Z,5.82
2023-04-05T06:22:04.602Z,5.63
2023-04-05T06:24:32.140Z,6.00
2023-04-05T06:26:59.606Z,5.00
2023-04-05T06:29:27.016Z,5.20
2023-04-05T06:31:55.172Z,4.95
2023-04-05T06:34:22.031Z,6.60
2023-04-05T06:36:49.249Z,6.30
2023-04-05T06:39:16.152Z,6.88
2023-04-05T06:41:42.898Z,6.32
2023-04-05T06:44:09.732Z,6.93
2023-04-05T06:46:36.593Z,5.57
2023-04-05T06:49:04.245Z,4.53
2023-04-05T06:51:31.794Z,5.03
2023-04-05T06:53:58.827Z,5.22
2023-04-05T06:56:25.792Z,6.20
2023-04-05T06:58:53.253Z,5.95
2023-04-05T07:01:20.299Z,6.80
2023-04-05T07:03:47.128Z,6.25
2023-04-05T07:06:14.348Z,5.00
2023-04-05T07:08:41.201Z,5.45
2023-04-05T07:11:08.546Z,5.28
2023-04-05T07:13:36.055Z,4.43
2023-04-05T07:16:03.701Z,4.20
2023-04-05T07:18:30.871Z,4.97
2023-04-05T07:21:03.950Z,4.45
2023-04-05T07:23:31.154Z,3.33
2023-04-05T07:26:04.720Z,4.30
2023-04-05T07:28:33.047Z,5.00
2023-04-05T07:30:59.893Z,5.38
2023-04-05T07:33:27.290Z,4.05
2023-04-05T07:35:54.869Z,4.35
2023-04-05T07:38:22.136Z,4.65
2023-04-05T07:40:50.073Z,3.40
2023-04-05T07:43:20.524Z,3.42
2023-04-05T07:45:47.813Z,3.88
2023-04-05T07:48:14.658Z,4.05
2023-04-05T07:50:42.438Z,3.67
2023-04-05T07:53:09.541Z,4.03
2023-04-05T07:55:38.630Z,3.65
2023-04-05T07:58:05.511Z,4.00
2023-04-05T08:00:32.791Z,3.67
2023-04-05T08:03:02.212Z,3.85
2023-04-05T08:05:29.531Z,4.10
2023-04-05T08:07:58.286Z,3.45
2023-04-05T08:10:26.221Z,4.38
2023-04-05T08:12:53.683Z,5.20
2023-04-05T08:15:21.013Z,6.15
2023-04-05T08:17:48.151Z,6.32
2023-04-05T08:20:15.066Z,4.90
2023-04-05T08:22:42.275Z,6.00
2023-04-05T08:25:09.774Z,4.13
2023-04-05T08:27:36.720Z,3.80
2023-04-05T08:30:04.198Z,4.00
2023-04-05T08:32:33.135Z,3.80
2023-04-05T08:35:00.461Z,3.42
2023-04-05T08:37:27.947Z,3.35
2023-04-05T08:39:55.253Z,3.00
2023-04-05T08:42:31.785Z,3.00
2023-04-05T08:45:02.980Z,3.72
2023-04-05T08:47:31.265Z,3.50
2023-04-05T08:49:58.961Z,3.95
2023-04-05T08:52:25.962Z,4.20
2023-04-05T08:54:55.340Z,6.05
2023-04-05T08:57:27.401Z,3.47
2023-04-05T08:59:56.414Z,3.50
2023-04-05T09:02:24.849Z,3.95
2023-04-05T09:04:52.680Z,3.38
2023-04-05T09:07:20.798Z,3.53
2023-04-05T09:09:52.466Z,3.70
2023-04-05T09:12:24.593Z,3.38
2023-04-05T09:14:52.595Z,3.92
2023-04-05T09:17:19.780Z,5.20
2023-04-05T09:19:50.167Z,4.30
2023-04-05T09:22:20.063Z,3.15
2023-04-05T09:24:47.434Z,3.35
2023-04-05T09:27:19.054Z,3.45
2023-04-05T09:29:48.674Z,3.45
2023-04-05T09:32:18.326Z,4.22
2023-04-05T09:34:45.488Z,6.00
2023-04-05T09:37:20.146Z,4.97
2023-04-05T09:39:49.830Z,3.65
2023-04-05T09:42:19.932Z,3.25
2023-04-05T09:44:57.572Z,3.70
2023-04-05T09:47:34.647Z,4.00
2023-04-05T09:50:16.847Z,4.68
2023-04-05T09:52:44.934Z,3.58
2023-04-05T09:55:13.402Z,4.68
2023-04-05T09:57:43.687Z,3.42
2023-04-05T10:00:23.888Z,3.60
2023-04-05T10:02:56.295Z,3.88
2023-04-05T10:05:29.536Z,3.80
2023-04-05T10:07:57.105Z,5.90
2023-04-05T10:10:24.811Z,4.15
2023-04-05T10:12:52.209Z,3.90
2023-04-05T10:15:19.313Z,3.63
2023-04-05T10:17:58.548Z,6.85
2023-04-05T10:20:28.098Z,4.28
2023-04-05T10:23:05.896Z,4.15
2023-04-05T10:25:36.077Z,3.40
2023-04-05T10:28:11.581Z,4.10
2023-04-05T10:30:47.513Z,3.58
2023-04-05T10:33:26.940Z,3.55
2023-04-05T10:35:56.909Z,5.70
2023-04-05T10:38:26.896Z,4.35
2023-04-05T10:41:10.315Z,4.15
2023-04-05T10:43:40.986Z,3.80
2023-04-05T10:46:08.816Z,3.00
2023-04-05T10:48:58.416Z,3.25
2023-04-05T10:51:26.785Z,3.80
2023-04-05T10:53:56.272Z,4.20
2023-04-05T10:56:25.168Z,3.10
2023-04-05T10:58:53.189Z,4.00
2023-04-05T11:01:21.396Z,4.30
2023-04-05T11:03:49.769Z,3.92
2023-04-05T11:06:34.016Z,3.50
2023-04-05T11:09:17.260Z,4.75
2023-04-05T11:11:48.336Z,5.13
2023-04-05T11:14:46.123Z,3.72
2023-04-05T11:17:29.199Z,3.97
2023-04-05T11:20:04.230Z,4.00
2023-04-05T11:22:31.811Z,6.20
2023-04-05T11:25:03.011Z,8.68
2023-04-05T11:27:37.656Z,6.20
2023-04-05T11:30:06.493Z,4.50
2023-04-05T11:32:44.504Z,5.93
2023-04-05T11:35:23.151Z,4.93
2023-04-05T11:38:01.890Z,5.13
2023-04-05T11:40:30.212Z,6.60
2023-04-05T11:43:04.309Z,7.43
2023-04-05T11:45:33.019Z,13.63
2023-04-05T11:48:10.829Z,10.82
2023-04-05T11:50:39.266Z,25.65
2023-04-05T11:53:13.890Z,8.82
2023-04-05T11:55:46.153Z,5.70
2023-04-05T11:58:15.044Z,5.90
2023-04-05T12:00:43.239Z,4.55
2023-04-05T12:03:17.884Z,6.03
2023-04-05T12:05:46.494Z,6.57
2023-04-05T12:08:13.407Z,4.80
2023-04-05T12:10:40.829Z,5.00
2023-04-05T12:13:07.663Z,6.43
2023-04-05T12:15:40.539Z,4.25
2023-04-05T12:18:14.826Z,7.70
2023-04-05T12:20:41.920Z,8.00
2023-04-05T12:23:09.270Z,4.25
2023-04-05T12:25:38.902Z,5.03
2023-04-05T12:28:09.736Z,8.10
2023-04-05T12:30:48.012Z,8.30
2023-04-05T12:33:15.791Z,13.77
2023-04-05T12:35:43.141Z,6.85
2023-04-05T12:38:14.088Z,5.32
2023-04-05T12:40:41.138Z,5.35
2023-04-05T12:43:09.878Z,4.97
2023-04-05T12:45:44.158Z,6.10
2023-04-05T12:48:20.172Z,6.63
2023-04-05T12:50:48.558Z,6.55
2023-04-05T12:53:18.477Z,4.70
2023-04-05T12:55:52.345Z,4.57
2023-04-05T12:58:21.124Z,4.43
2023-04-05T13:00:48.537Z,5.10
2023-04-05T13:03:21.231Z,4.10
2023-04-05T13:05:49.403Z,3.78
2023-04-05T13:08:19.673Z,4.03
2023-04-05T13:10:47.789Z,6.82
2023-04-05T13:13:16.577Z,5.88
2023-04-05T13:15:44.251Z,6.57
2023-04-05T13:18:14.787Z,5.25
2023-04-05T13:20:45.621Z,4.47
2023-04-05T13:23:13.232Z,4.53
2023-04-05T13:25:45.572Z,4.20
2023-04-05T13:28:12.912Z,4.55
2023-04-05T13:30:39.805Z,4.63
2023-04-05T13:33:07.145Z,3.85
2023-04-05T13:35:35.047Z,3.10
2023-04-05T13:38:04.250Z,4.05
2023-04-05T13:40:32.081Z,8.13
2023-04-05T13:42:59.176Z,7.00
2023-04-05T13:45:26.337Z,4.18
2023-04-05T13:47:53.822Z,4.05
2023-04-05T13:50:21.054Z,4.25
2023-04-05T13:52:47.964Z,3.90
2023-04-05T13:55:14.854Z,4.15
2023-04-05T13:57:41.654Z,3.92
2023-04-05T14:00:09.455Z,4.47
2023-04-05T14:02:36.404Z,4.38
2023-04-05T14:05:03.792Z,3.80
2023-04-05T14:07:30.886Z,3.88
2023-04-05T14:09:57.826Z,3.78
2023-04-05T14:12:25.034Z,3.65
2023-04-05T14:14:52.261Z,3.85
2023-04-05T14:17:19.525Z,4.32
2023-04-05T14:19:46.437Z,4.75
2023-04-05T14:22:13.873Z,4.30
2023-04-05T14:24:40.765Z,4.93
2023-04-05T14:27:07.980Z,4.32
2023-04-05T14:29:34.896Z,3.42
2023-04-05T14:32:02.251Z,6.28
2023-04-05T14:34:29.109Z,6.82
2023-04-05T14:36:58.320Z,3.63
2023-04-05T14:39:25.277Z,3.40
2023-04-05T14:41:52.925Z,3.95
2023-04-05T14:44:20.237Z,4.03
2023-04-05T14:46:48.595Z,3.80
2023-04-05T14:49:16.768Z,3.72
2023-04-05T14:51:43.699Z,4.35
2023-04-05T14:54:10.803Z,3.92
2023-04-05T14:56:37.681Z,3.95
2023-04-05T14:59:05.044Z,4.10
2023-04-05T15:01:32.190Z,7.20
2023-04-05T15:03:59.321Z,4.50
2023-04-05T15:06:26.291Z,4.28
2023-04-05T15:08:53.663Z,3.88
2023-04-05T15:11:21.708Z,4.18
2023-04-05T15:13:48.709Z,4.68
2023-04-05T15:16:15.607Z,4.35
2023-04-05T15:18:42.549Z,3.40
2023-04-05T15:21:09.389Z,4.05
2023-04-05T15:23:36.325Z,7.07
2023-04-05T15:26:03.278Z,6.13
2023-04-05T15:28:35.296Z,3.63
2023-04-05T15:31:02.634Z,4.03
2023-04-05T15:33:29.619Z,8.00
2023-04-05T15:35:56.587Z,5.57
2023-04-05T15:38:25.854Z,5.93
2023-04-05T15:40:52.808Z,4.90
2023-04-05T15:43:20.972Z,4.90
2023-04-05T15:45:47.883Z,6.47
2023-04-05T15:48:14.828Z,8.23
2023-04-05T15:50:42.549Z,11.30
2023-04-05T15:53:10.318Z,14.27
2023-04-05T15:55:37.646Z,7.22
2023-04-05T15:58:04.737Z,7.32
2023-04-05T16:00:35.052Z,4.93
2023-04-05T16:03:02.314Z,5.18
2023-04-05T16:05:29.261Z,5.13
2023-04-05T16:07:56.214Z,3.88
2023-04-05T16:10:23.185Z,4.30
2023-04-05T16:12:52.454Z,5.93
2023-04-05T16:15:19.778Z,4.32
2023-04-05T16:17:46.890Z,3.08
2023-04-05T16:20:14.177Z,3.30
2023-04-05T16:22:41.704Z,3.20
2023-04-05T16:25:08.693Z,3.25
2023-04-05T16:27:37.513Z,3.42
2023-04-05T16:30:04.923Z,4.00
2023-04-05T16:32:32.139Z,4.07
2023-04-05T16:34:59.390Z,6.15
2023-04-05T16:37:26.449Z,4.82
2023-04-05T16:39:53.325Z,4.05
2023-04-05T16:42:20.175Z,4.95
2023-04-05T16:44:47.455Z,4.60
2023-04-05T16:47:14.291Z,4.63
2023-04-05T16:49:41.461Z,4.03
2023-04-05T16:52:09.340Z,4.05
2023-04-05T16:54:36.154Z,4.65
2023-04-05T16:57:03.004Z,5.28
2023-04-05T16:59:31.296Z,5.88
2023-04-05T17:01:58.529Z,5.65
2023-04-05T17:04:25.519Z,4.20
2023-04-05T17:06:52.360Z,5.20
2023-04-05T17:09:19.360Z,8.65
2023-04-05T17:11:46.921Z,5.10
2023-04-05T17:14:13.868Z,4.03
2023-04-05T17:16:40.980Z,4.65
2023-04-05T17:19:08.005Z,4.45
2023-04-05T17:21:35.657Z,5.05
2023-04-05T17:24:03.021Z,6.65
2023-04-05T17:26:30.530Z,4.95
2023-04-05T17:28:58.040Z,4.88
2023-04-05T17:31:25.755Z,4.15
2023-04-05T17:33:52.645Z,5.25
2023-04-05T17:36:19.456Z,4.93
2023-04-05T17:38:46.495Z,5.75
2023-04-05T17:41:13.936Z,5.93
2023-04-05T17:43:40.896Z,4.97
2023-04-05T17:46:09.414Z,5.22
2023-04-05T17:48:42.300Z,5.00
2023-04-05T17:51:12.052Z,5.13
2023-04-05T17:53:39.116Z,5.95
2023-04-05T17:56:06.132Z,5.93
2023-04-05T17:58:35.772Z,5.85
2023-04-05T18:01:03.103Z,6.47
2023-04-05T18:03:30.146Z,6.97
2023-04-05T18:05:57.150Z,6.60
2023-04-05T18:08:26.428Z,6.55
2023-04-05T18:10:58.087Z,6.57
2023-04-05T18:13:26.817Z,6.40
2023-04-05T18:15:55.125Z,6.20
2023-04-05T18:18:22.629Z,6.15
2023-04-05T18:20:51.335Z,7.38
2023-04-05T18:23:22.428Z,7.68
2023-04-05T18:25:49.726Z,7.13
2023-04-05T18:28:22.870Z,6.40
2023-04-05T18:30:51.721Z,7.53
2023-04-05T18:33:18.866Z,7.20
2023-04-05T18:35:50.551Z,6.65
2023-04-05T18:38:18.461Z,7.25
2023-04-05T18:40:46.139Z,8.45
2023-04-05T18:43:13.751Z,9.07
2023-04-05T18:45:40.924Z,9.07
2023-04-05T18:48:07.968Z,8.80
2023-04-05T18:50:35.576Z,8.55
2023-04-05T18:53:02.976Z,13.15
2023-04-05T18:55:29.820Z,12.30
2023-04-05T18:57:56.970Z,11.57
2023-04-05T19:00:23.854Z,12.95
2023-04-05T19:02:51.077Z,12.27
2023-04-05T19:05:18.180Z,13.23
2023-04-05T19:07:45.349Z,10.43
2023-04-05T19:10:12.300Z,11.63
2023-04-05T19:12:39.081Z,11.07
2023-04-05T19:15:07.126Z,12.15
2023-04-05T19:17:34.034Z,12.82
2023-04-05T19:20:00.863Z,12.20
2023-04-05T19:22:27.697Z,12.27
2023-04-05T19:24:54.810Z,12.48
2023-04-05T19:27:21.689Z,15.80
2023-04-05T19:29:48.898Z,15.25
2023-04-05T19:32:16.109Z,11.38
2023-04-05T19:34:42.950Z,11.40
2023-04-05T19:37:09.857Z,11.15
2023-04-05T19:39:36.869Z,13.10
2023-04-05T19:42:05.298Z,12.25
2023-04-05T19:44:37.009Z,10.50
2023-04-05T19:47:10.894Z,11.63
2023-04-05T19:49:45.050Z,11.23
2023-04-05T19:52:33.531Z,12.65
2023-04-05T19:55:01.527Z,10.75
2023-04-05T19:57:28.983Z,11.68
2023-04-05T19:59:55.953Z,14.05
2023-04-05T20:02:38.573Z,15.38
2023-04-05T20:05:13.352Z,16.40
2023-04-05T20:07:40.375Z,15.23
2023-04-05T20:10:16.246Z,18.67
2023-04-05T20:12:43.508Z,20.27
2023-04-05T20:15:12.988Z,19.88
2023-04-05T20:17:42.916Z,17.58
2023-04-05T20:20:11.279Z,17.73
2023-04-05T20:22:38.876Z,18.52
2023-04-05T20:25:34.970Z,19.45
2023-04-05T20:28:02.077Z,18.42
2023-04-05T20:30:30.655Z,20.10
2023-04-05T20:32:57.611Z,24.13
2023-04-05T20:35:32.636Z,18.95
2023-04-05T20:37:59.493Z,16.48
2023-04-05T20:40:26.496Z,13.40
2023-04-05T20:42:53.342Z,13.57
2023-04-05T20:45:20.363Z,14.55
2023-04-05T20:47:47.754Z,13.10
2023-04-05T20:50:15.124Z,13.45
2023-04-05T20:52:41.953Z,18.85
2023-04-05T20:55:09.742Z,17.55
2023-04-05T20:57:39.776Z,19.05
2023-04-05T21:00:07.846Z,15.70
2023-04-05T21:02:35.167Z,14.15
2023-04-05T21:05:03.916Z,24.33
2023-04-05T21:07:34.262Z,35.75
2023-04-05T21:10:01.798Z,36.35
2023-04-05T21:12:28.985Z,27.42
2023-04-05T21:14:55.900Z,22.25
2023-04-05T21:17:22.918Z,19.60
2023-04-05T21:19:49.726Z,18.13
2023-04-05T21:22:16.554Z,16.88
2023-04-05T21:24:43.393Z,19.38
2023-04-05T21:27:10.180Z,19.38
2023-04-05T21:29:37.002Z,17.50
2023-04-05T21:32:04.493Z,13.35
2023-04-05T21:34:31.427Z,12.85
2023-04-05T21:36:58.248Z,15.57
2023-04-05T21:39:25.055Z,20.13
2023-04-05T21:41:52.463Z,22.15
2023-04-05T21:44:19.246Z,24.55
2023-04-05T21:46:46.447Z,24.38
2023-04-05T21:49:13.844Z,26.33
2023-04-05T21:51:41.502Z,25.83
2023-04-05T21:54:08.345Z,27.77
2023-04-05T21:56:35.487Z,25.45
2023-04-05T21:59:02.370Z,26.27
2023-04-05T22:01:29.590Z,23.55
2023-04-05T22:03:56.467Z,22.80
2023-04-05T22:06:23.328Z,19.02
2023-04-05T22:08:53.030Z,20.75
2023-04-05T22:11:21.327Z,15.90
2023-04-05T22:13:48.201Z,14.85
2023-04-05T22:16:14.987Z,16.50
2023-04-05T22:18:41.834Z,16.05
2023-04-05T22:21:09.273Z,17.95
2023-04-05T22:23:36.515Z,16.98
2023-04-05T22:26:03.436Z,19.88
2023-04-05T22:28:30.412Z,18.42
2023-04-05T22:30:57.202Z,20.40
2023-04-05T22:33:24.399Z,19.58
2023-04-05T22:35:51.771Z,22.85
2023-04-05T22:38:19.039Z,21.10
2023-04-05T22:40:46.428Z,18.13
2023-04-05T22:43:13.712Z,16.20
2023-04-05T22:45:41.076Z,16.48
2023-04-05T22:48:08.061Z,15.48
2023-04-05T22:50:35.317Z,14.27
2023-04-05T22:53:02.203Z,14.95
2023-04-05T22:55:29.247Z,13.75
2023-04-05T22:57:56.784Z,12.40
2023-04-05T23:00:23.643Z,13.43
2023-04-05T23:02:51.159Z,11.18
2023-04-05T23:05:18.034Z,12.07
2023-04-05T23:07:45.298Z,12.00
2023-04-05T23:10:12.180Z,12.30
2023-04-05T23:12:39.042Z,11.77
2023-04-05T23:15:06.664Z,12.05
2023-04-05T23:17:33.984Z,11.57
2023-04-05T23:20:00.909Z,10.60
2023-04-05T23:22:27.742Z,13.18
2023-04-05T23:24:54.608Z,12.45
2023-04-05T23:27:22.927Z,13.02
2023-04-05T23:29:49.922Z,11.23
2023-04-05T23:32:16.705Z,12.25
2023-04-05T23:34:43.460Z,10.00
2023-04-05T23:37:10.388Z,9.80
2023-04-05T23:39:37.249Z,10.50
2023-04-05T23:42:04.788Z,12.57
2023-04-05T23:44:31.716Z,9.98
2023-04-05T23:46:58.609Z,11.15
2023-04-05T23:49:27.922Z,12.93
2023-04-05T23:51:55.818Z,12.05
2023-04-05T23:54:23.337Z,12.45
2023-04-05T23:56:50.560Z,11.60
2023-04-05T23:59:17.436Z,11.18
